Time;durP1;ratioP1;P1;durP2;ratioP2;P2;SDS_P1;SDS_P2;PMS_P1;PMS_P2;Temp;Humidity;BMP_temperature;BMP_pressure;BME280_temperature;BME280_humidity;BME280_pressure;Samples;Min_cycle;Max_cycle;Signal;HPM_P1;HPM_P2
2023/12/03 00:00:39;;;;;;;181.75;8.00;;;;;;;24.10;48.47;99402.06;7285382;19;129674;-39
2023/12/03 00:03:06;;;;;;;131.45;6.03;;;;;;;24.07;48.69;99405.00;7286326;19;131684;-38
2023/12/03 00:05:31;;;;;;;171.88;7.55;;;;;;;23.95;49.03;99400.16;7287843;19;131254;-38
2023/12/03 00:07:57;;;;;;;215.37;10.13;;;;;;;23.83;49.58;99402.25;7287849;19;130100;-38
2023/12/03 00:10:23;;;;;;;180.13;7.57;;;;;;;23.70;50.13;99401.09;7286801;19;131520;-39
2023/12/03 00:12:48;;;;;;;182.17;8.27;;;;;;;23.62;50.36;99407.09;7285570;19;130874;-39
2023/12/03 00:15:14;;;;;;;202.93;9.07;;;;;;;23.52;50.04;99411.66;7286249;19;130385;-39
2023/12/03 00:17:39;;;;;;;165.05;7.57;;;;;;;23.41;50.89;99417.16;7286835;19;130392;-38
2023/12/03 00:20:05;;;;;;;179.80;7.82;;;;;;;23.29;50.77;99421.03;7285222;19;132322;-37
2023/12/03 00:22:31;;;;;;;194.20;8.53;;;;;;;23.18;51.55;99411.59;7282926;19;133932;-37
2023/12/03 00:24:56;;;;;;;230.07;10.40;;;;;;;23.10;51.45;99408.94;7285291;19;130932;-39
2023/12/03 00:27:21;;;;;;;201.50;9.05;;;;;;;23.01;51.20;99422.13;7287396;19;129524;-38
2023/12/03 00:29:47;;;;;;;164.27;7.53;;;;;;;22.91;51.56;99413.50;7282943;19;129367;-37
2023/12/03 00:32:12;;;;;;;157.80;7.00;;;;;;;22.82;52.00;99414.44;7283841;19;130075;-39
2023/12/03 00:34:37;;;;;;;178.60;8.00;;;;;;;22.75;51.87;99410.78;7282919;19;133008;-39
2023/12/03 00:37:03;;;;;;;252.07;11.48;;;;;;;22.67;52.29;99418.56;7283821;19;130565;-39
2023/12/03 00:39:28;;;;;;;232.37;10.43;;;;;;;22.58;52.01;99411.59;7284165;19;131453;-37
2023/12/03 00:41:53;;;;;;;221.05;10.20;;;;;;;22.51;52.49;99415.78;7284794;19;130599;-39
2023/12/03 00:44:19;;;;;;;129.17;6.23;;;;;;;22.30;52.59;99399.50;7285934;19;130859;-38
2023/12/03 00:46:45;;;;;;;227.43;10.07;;;;;;;22.38;52.50;99420.56;7285382;19;131060;-38
2023/12/03 00:49:10;;;;;;;179.37;7.90;;;;;;;22.33;52.86;99422.81;7283615;19;129624;-38
2023/12/03 00:51:36;;;;;;;193.00;8.97;;;;;;;22.32;53.30;99424.59;7285972;19;129508;-38
2023/12/03 00:54:01;;;;;;;243.00;11.63;;;;;;;22.33;53.47;99420.19;7284599;19;130906;-39
2023/12/03 00:56:26;;;;;;;205.40;9.15;;;;;;;22.45;53.42;99413.75;7286843;19;131206;-38
2023/12/03 00:58:52;;;;;;;172.33;7.83;;;;;;;22.54;53.00;99415.50;7285608;19;132674;-39
2023/12/03 01:01:19;;;;;;;183.10;8.17;;;;;;;22.63;52.81;99414.59;7294630;19;132062;-37
2023/12/03 01:03:45;;;;;;;202.88;9.18;;;;;;;22.72;52.03;99405.84;7292944;19;130481;-39
2023/12/03 01:06:10;;;;;;;211.23;9.03;;;;;;;23.11;51.19;99433.34;7292920;19;129394;-39
2023/12/03 01:08:35;;;;;;;182.35;7.95;;;;;;;23.17;51.50;99435.38;7292999;19;132249;-37
2023/12/03 01:11:04;;;;;;;174.63;8.40;;;;;;;23.35;50.65;99433.53;7290599;19;133899;-39
2023/12/03 01:13:29;;;;;;;180.45;8.07;;;;;;;23.28;50.75;99415.94;7292642;19;130752;-37
2023/12/03 01:15:55;;;;;;;243.10;10.63;;;;;;;23.59;50.21;99440.72;7289676;19;129633;-39
2023/12/03 01:18:20;;;;;;;164.52;7.78;;;;;;;23.67;49.36;99433.72;7292860;19;129079;-38
2023/12/03 01:20:46;;;;;;;182.13;8.13;;;;;;;23.83;49.75;99446.91;7293271;19;130076;-38
2023/12/03 01:23:11;;;;;;;200.53;8.70;;;;;;;23.96;48.91;99451.72;7291642;19;134170;-38
2023/12/03 01:25:36;;;;;;;210.10;9.25;;;;;;;23.95;49.22;99458.78;7291309;19;129965;-38
2023/12/03 01:28:02;;;;;;;190.40;8.40;;;;;;;23.98;49.21;99465.56;7289758;19;129393;-38
2023/12/03 01:30:27;;;;;;;120.40;5.30;;;;;;;23.92;49.30;99468.75;7290869;19;133191;-37
2023/12/03 01:32:53;;;;;;;220.67;9.37;;;;;;;23.83;49.85;99469.72;7291368;19;131098;-39
2023/12/03 01:35:18;;;;;;;195.90;8.70;;;;;;;23.77;49.91;99476.41;7289758;19;129695;-40
2023/12/03 01:37:43;;;;;;;134.07;6.30;;;;;;;23.63;49.70;99479.63;7289191;19;129416;-37
2023/12/03 01:40:09;;;;;;;217.53;10.07;;;;;;;23.57;49.82;99474.97;7288446;19;129768;-36
2023/12/03 01:42:34;;;;;;;227.43;9.77;;;;;;;23.43;50.60;99478.19;7292656;19;133009;-39
2023/12/03 01:45:00;;;;;;;175.57;8.10;;;;;;;23.39;50.78;99482.09;7291193;19;130434;-39
2023/12/03 01:47:26;;;;;;;98.25;5.07;;;;;;;23.23;51.17;99476.72;7291995;19;130240;-38
2023/12/03 01:49:52;;;;;;;176.47;8.13;;;;;;;23.02;50.92;99468.34;7290242;19;130923;-39
2023/12/03 01:52:18;;;;;;;247.23;10.83;;;;;;;23.03;51.24;99481.31;7290659;19;129654;-39
2023/12/03 01:54:44;;;;;;;167.95;7.65;;;;;;;22.91;51.69;99486.91;7293263;19;131702;-38
2023/12/03 01:57:10;;;;;;;205.10;9.93;;;;;;;22.81;51.95;99496.66;7288316;19;129292;-37
2023/12/03 01:59:35;;;;;;;185.23;8.27;;;;;;;22.75;52.82;99497.25;7289159;19;131416;-38
2023/12/03 02:02:01;;;;;;;266.15;12.10;;;;;;;;;;7291383;19;132463;-38
2023/12/03 02:04:26;;;;;;;170.90;7.68;;;;;;;22.52;52.92;99501.25;7293542;19;130980;-44
2023/12/03 02:06:52;;;;;;;185.97;8.23;;;;;;;22.47;52.54;99508.72;7290759;19;130567;-43
2023/12/03 02:09:19;;;;;;;137.25;6.32;;;;;;;22.37;53.50;99505.34;7289455;19;130736;-40
2023/12/03 02:11:45;;;;;;;192.25;8.57;;;;;;;22.31;53.32;99508.56;7292296;19;131552;-39
2023/12/03 02:14:10;;;;;;;173.70;8.20;;;;;;;22.25;53.58;99514.38;7292353;19;129949;-41
2023/12/03 02:16:36;;;;;;;178.27;8.10;;;;;;;22.23;53.49;99511.09;7289235;19;129219;-37
2023/12/03 02:19:04;;;;;;;177.13;8.13;;;;;;;22.35;53.55;99520.38;7288491;19;130203;-39
2023/12/03 02:21:30;;;;;;;156.82;6.88;;;;;;;22.51;53.50;99513.53;7292212;19;129837;-39
2023/12/03 02:23:55;;;;;;;194.17;8.73;;;;;;;22.41;53.13;99488.38;7293655;19;130426;-38
2023/12/03 02:26:21;;;;;;;164.07;7.38;;;;;;;22.76;52.36;99519.88;7291030;19;129455;-38
2023/12/03 02:28:47;;;;;;;184.87;8.17;;;;;;;22.88;52.04;99518.69;7289685;19;130185;-43
2023/12/03 02:31:14;;;;;;;196.32;8.85;;;;;;;22.84;51.76;99491.13;7291537;19;130788;-39
2023/12/03 02:33:39;;;;;;;131.52;6.43;;;;;;;23.19;51.34;99526.00;7292970;19;131068;-43
2023/12/03 02:36:05;;;;;;;194.80;9.10;;;;;;;23.32;51.07;99517.78;7288151;19;130049;-43
2023/12/03 02:38:30;;;;;;;120.03;5.40;;;;;;;23.50;50.52;99521.22;7289452;19;130505;-38
2023/12/03 02:40:58;;;;;;;193.27;8.63;;;;;;;23.57;50.64;99527.47;7292153;19;131607;-39
2023/12/03 02:43:24;;;;;;;187.27;8.55;;;;;;;23.58;49.58;99508.16;7291227;19;128871;-42
2023/12/03 02:45:49;;;;;;;155.77;7.07;;;;;;;23.83;49.69;99525.66;7292778;19;129608;-40
2023/12/03 02:48:14;;;;;;;231.13;10.53;;;;;;;23.84;49.50;99529.94;7290269;19;129567;-39
2023/12/03 02:50:40;;;;;;;132.38;5.95;;;;;;;23.84;49.71;99524.69;7291631;19;130265;-42
2023/12/03 02:53:05;;;;;;;190.25;8.77;;;;;;;23.65;49.96;99503.91;7289646;19;129354;-39
2023/12/03 02:55:30;;;;;;;153.87;6.90;;;;;;;23.73;49.88;99532.84;7291132;19;129455;-43
2023/12/03 02:57:56;;;;;;;188.77;8.27;;;;;;;23.73;49.73;99532.84;7288564;19;129709;-43
2023/12/03 03:00:21;;;;;;;165.13;7.40;;;;;;;23.58;49.70;99536.19;7292804;19;131076;-39
2023/12/03 03:02:46;;;;;;;189.07;8.50;;;;;;;23.56;50.66;99546.00;7291238;19;129471;-42
2023/12/03 03:05:12;;;;;;;209.23;9.77;;;;;;;23.45;50.84;99547.09;7289359;19;129145;-40
2023/12/03 03:07:37;;;;;;;151.13;6.53;;;;;;;23.37;51.14;99540.94;7291108;19;130057;-44
2023/12/03 03:10:02;;;;;;;118.93;5.43;;;;;;;23.22;51.09;99543.28;7288500;19;130206;-45
2023/12/03 03:12:28;;;;;;;139.60;6.47;;;;;;;23.11;51.33;99551.34;7290586;19;129651;-43
2023/12/03 03:14:53;;;;;;;206.93;8.93;;;;;;;22.89;51.71;99530.84;7290173;19;130077;-37
2023/12/03 03:17:18;;;;;;;265.27;12.37;;;;;;;22.88;51.84;99550.13;7289352;19;130262;-41
2023/12/03 03:19:44;;;;;;;165.50;7.43;;;;;;;22.81;52.60;99554.31;7290832;19;130105;-38
2023/12/03 03:22:13;;;;;;;181.80;8.37;;;;;;;22.70;52.48;99547.50;7276495;19;130089;-37
2023/12/03 03:24:40;;;;;;;199.57;9.40;;;;;;;22.59;52.33;99549.53;7287046;19;129574;-45
2023/12/03 03:27:05;;;;;;;139.95;6.45;;;;;;;22.50;52.59;99550.34;7291300;19;131335;-40
2023/12/03 03:29:32;;;;;;;183.83;8.20;;;;;;;22.40;53.30;99554.81;7290087;19;131400;-40
2023/12/03 03:31:57;;;;;;;152.68;7.28;;;;;;;22.34;53.29;99565.88;7293538;19;131148;-37
2023/12/03 03:34:22;;;;;;;177.03;7.97;;;;;;;22.25;53.52;99569.34;7291108;19;131155;-39
2023/12/03 03:36:47;;;;;;;183.50;8.40;;;;;;;22.26;53.69;99568.41;7289754;19;130164;-37
2023/12/03 03:39:13;;;;;;;187.47;8.67;;;;;;;22.30;54.00;99569.75;7288608;19;129522;-40
2023/12/03 03:41:38;;;;;;;137.05;6.45;;;;;;;22.42;53.18;99573.84;7290523;19;130016;-35
2023/12/03 03:44:03;;;;;;;227.87;9.43;;;;;;;22.56;53.47;99571.59;7286374;19;129792;-39
2023/12/03 03:46:29;;;;;;;147.20;6.82;;;;;;;22.71;52.35;99574.56;7289944;19;130290;-44
2023/12/03 03:48:54;;;;;;;222.50;10.17;;;;;;;22.84;52.06;99572.41;7286331;19;129295;-44
2023/12/03 03:51:19;;;;;;;184.50;8.38;;;;;;;22.88;52.35;99560.63;7288307;19;130804;-40
2023/12/03 03:53:45;;;;;;;227.88;9.60;;;;;;;23.14;52.00;99574.63;7289975;19;130327;-42
2023/12/03 03:56:11;;;;;;;194.75;9.05;;;;;;;23.20;50.97;99581.94;7290105;19;130995;-37
2023/12/03 03:58:37;;;;;;;177.38;8.20;;;;;;;23.30;51.56;99585.34;7286879;19;131622;-43
2023/12/03 04:01:09;;;;;;;132.38;6.38;;;;;;;23.48;50.65;99580.91;7286951;19;129709;-40
2023/12/03 04:03:34;;;;;;;203.70;8.95;;;;;;;23.57;49.89;99579.16;7289526;19;129540;-42
2023/12/03 04:06:01;;;;;;;195.03;8.57;;;;;;;23.71;50.15;99582.06;7289982;19;130950;-41
2023/12/03 04:08:26;;;;;;;144.10;6.57;;;;;;;23.75;49.96;99585.19;7288112;19;130916;-41
2023/12/03 04:10:51;;;;;;;224.63;10.15;;;;;;;23.76;50.03;99569.28;7287599;19;130325;-41
2023/12/03 04:13:17;;;;;;;243.23;10.97;;;;;;;23.85;49.81;99585.94;7287794;19;129794;-39
2023/12/03 04:15:42;;;;;;;196.18;8.60;;;;;;;23.83;49.45;99583.44;7289287;19;130445;-38
2023/12/03 04:18:07;;;;;;;162.75;7.25;;;;;;;23.66;49.76;99583.47;7284633;19;130377;-43
2023/12/03 04:20:33;;;;;;;147.73;6.83;;;;;;;23.58;50.51;99592.13;7289159;19;129342;-41
2023/12/03 04:22:58;;;;;;;210.37;9.17;;;;;;;23.51;50.53;99580.59;7288030;19;130696;-39
2023/12/03 04:25:24;;;;;;;165.38;7.88;;;;;;;23.36;51.25;99591.75;7288266;19;129544;-42
2023/12/03 04:27:49;;;;;;;92.83;4.50;;;;;;;23.27;50.95;99592.69;7286556;19;130802;-42
2023/12/03 04:30:14;;;;;;;190.73;8.70;;;;;;;23.13;51.44;99594.00;7286943;19;129216;-43
2023/12/03 04:32:40;;;;;;;203.27;8.80;;;;;;;23.05;51.38;99599.16;7289462;19;130074;-42
2023/12/03 04:35:05;;;;;;;154.20;6.90;;;;;;;22.96;51.96;99589.53;7294056;19;132211;-39
2023/12/03 04:37:30;;;;;;;176.80;8.10;;;;;;;22.90;52.42;99590.97;7292319;19;130893;-36
2023/12/03 04:39:56;;;;;;;198.77;8.70;;;;;;;22.95;52.17;99587.91;7293982;19;129920;-38
2023/12/03 04:42:21;;;;;;;195.00;8.95;;;;;;;23.24;51.36;99599.00;7295139;19;129389;-44
2023/12/03 04:44:46;;;;;;;98.17;4.50;;;;;;;23.85;50.00;99593.81;7292968;19;129860;-44
2023/12/03 04:47:13;;;;;;;181.40;8.57;;;;;;;24.48;48.02;99588.09;7293177;19;130633;-40
2023/12/03 04:49:39;;;;;;;220.40;9.43;;;;;;;25.13;46.47;99594.38;7290088;19;129919;-40
2023/12/03 04:52:05;;;;;;;159.87;7.03;;;;;;;25.40;45.73;99596.72;7293931;19;129582;-43
2023/12/03 04:54:30;;;;;;;150.80;6.57;;;;;;;25.75;45.62;99600.03;7292923;19;131167;-44
2023/12/03 04:56:55;;;;;;;129.00;5.77;;;;;;;25.97;44.59;99600.16;7291083;19;131053;-39
2023/12/03 04:59:21;;;;;;;248.33;10.63;;;;;;;26.04;44.21;99595.06;7291553;19;131049;-42
2023/12/03 05:01:46;;;;;;;178.88;8.00;;;;;;;26.12;44.01;99592.41;7295717;19;130087;-39
2023/12/03 05:04:11;;;;;;;153.05;6.82;;;;;;;26.03;43.91;99575.78;7292639;19;131376;-46
2023/12/03 05:06:37;;;;;;;175.63;7.80;;;;;;;26.15;44.35;99606.06;7294716;19;133106;-40
2023/12/03 05:09:02;;;;;;;225.10;9.53;;;;;;;26.06;44.42;99612.34;7292579;19;130095;-38
2023/12/03 05:11:27;;;;;;;228.97;10.57;;;;;;;25.95;44.65;99610.03;7293265;19;129707;-39
2023/12/03 05:13:53;;;;;;;177.67;7.57;;;;;;;25.77;45.40;99612.03;7292879;19;130166;-36
2023/12/03 05:16:18;;;;;;;166.77;7.20;;;;;;;25.64;45.46;99619.59;7292347;19;131455;-42
2023/12/03 05:18:43;;;;;;;100.23;4.50;;;;;;;25.51;45.18;99595.59;7290920;19;129556;-41
2023/12/03 05:21:09;;;;;;;192.33;8.33;;;;;;;25.55;46.05;99625.88;7293724;19;129402;-39
2023/12/03 05:23:34;;;;;;;184.33;8.00;;;;;;;25.48;45.90;99630.16;7294452;19;130927;-39
2023/12/03 05:26:00;;;;;;;211.53;9.20;;;;;;;25.56;46.20;99632.78;7295083;19;130561;-42
2023/12/03 05:28:25;;;;;;;190.47;8.37;;;;;;;25.76;45.43;99630.63;7293744;19;129591;-45
2023/12/03 05:30:51;;;;;;;142.10;6.10;;;;;;;26.07;45.09;99627.16;7292553;19;129995;-43
2023/12/03 05:33:16;;;;;;;173.47;7.77;;;;;;;26.23;44.61;99632.41;7293474;19;131764;-40
2023/12/03 05:35:42;;;;;;;222.83;9.30;;;;;;;26.35;43.77;99636.31;7294304;19;130458;-41
2023/12/03 05:38:07;;;;;;;130.83;5.87;;;;;;;26.44;43.78;99635.31;7291488;19;129668;-39
2023/12/03 05:40:32;;;;;;;138.20;5.97;;;;;;;26.43;43.95;99636.28;7292762;19;129485;-43
2023/12/03 05:42:59;;;;;;;174.00;7.30;;;;;;;26.38;44.24;99637.78;7291803;19;132531;-40
2023/12/03 05:45:24;;;;;;;223.48;9.52;;;;;;;26.36;43.81;99640.59;7290987;19;130390;-39
2023/12/03 05:47:50;;;;;;;148.67;6.30;;;;;;;26.31;44.25;99645.53;7293521;19;131025;-39
2023/12/03 05:50:15;;;;;;;147.77;6.43;;;;;;;26.28;44.17;99640.63;7294564;19;132442;-43
2023/12/03 05:52:41;;;;;;;197.67;8.33;;;;;;;26.21;43.95;99634.41;7291408;19;130832;-44
2023/12/03 05:55:06;;;;;;;226.13;9.57;;;;;;;26.12;44.42;99648.56;7292151;19;130887;-37
2023/12/03 05:57:32;;;;;;;226.90;10.40;;;;;;;26.13;44.56;99646.75;7288270;19;129357;-44
2023/12/03 05:59:57;;;;;;;182.70;7.87;;;;;;;26.05;44.52;99634.41;7288497;19;130188;-39
2023/12/03 06:02:22;;;;;;;175.57;7.77;;;;;;;26.06;44.42;99646.63;7291995;19;131602;-40
2023/12/03 06:04:48;;;;;;;226.63;9.37;;;;;;;26.12;44.12;99647.75;7292224;19;130927;-41
2023/12/03 06:07:13;;;;;;;204.77;8.90;;;;;;;26.06;45.12;99651.06;7292593;19;129545;-37
2023/12/03 06:09:39;;;;;;;193.47;8.30;;;;;;;25.87;45.30;99659.25;7289844;19;129466;-42
2023/12/03 06:12:05;;;;;;;145.03;6.23;;;;;;;25.72;45.45;99659.09;7292351;19;131204;-43
2023/12/03 06:14:31;;;;;;;218.70;9.90;;;;;;;25.58;46.31;99657.94;7293086;19;130927;-43
2023/12/03 06:16:56;;;;;;;164.73;7.17;;;;;;;25.48;46.62;99664.38;7290110;19;129452;-39
2023/12/03 06:19:22;;;;;;;213.97;9.30;;;;;;;25.38;46.57;99666.31;7290145;19;129881;-39
2023/12/03 06:21:47;;;;;;;243.60;10.20;;;;;;;25.32;46.77;99666.94;7294199;19;132663;-40
2023/12/03 06:24:12;;;;;;;169.27;7.40;;;;;;;25.33;46.78;99663.31;7292065;19;131272;-43
2023/12/03 06:26:38;;;;;;;188.70;8.43;;;;;;;25.34;46.77;99659.69;7291134;19;129903;-38
2023/12/03 06:29:03;;;;;;;162.73;7.23;;;;;;;25.33;46.69;99671.22;7289371;19;129579;-40
2023/12/03 06:31:29;;;;;;;245.73;10.47;;;;;;;25.41;46.50;99669.47;7291271;19;130842;-38
2023/12/03 06:33:54;;;;;;;133.97;6.00;;;;;;;25.43;46.10;99674.56;7293652;19;131029;-39
2023/12/03 06:36:20;;;;;;;170.40;7.17;;;;;;;25.43;46.21;99679.81;7290701;19;129628;-45
2023/12/03 06:38:45;;;;;;;180.33;7.73;;;;;;;25.37;46.45;99685.75;7288441;19;129316;-41
2023/12/03 06:41:10;;;;;;;202.27;8.47;;;;;;;25.44;46.05;99686.72;7291907;19;131322;-40
2023/12/03 06:43:36;;;;;;;207.90;9.23;;;;;;;25.41;46.55;99692.31;7292265;19;129153;-40
2023/12/03 06:46:02;;;;;;;177.90;7.53;;;;;;;25.36;46.98;99692.81;7291105;19;129498;-39
2023/12/03 06:48:27;;;;;;;210.40;9.17;;;;;;;25.54;46.30;99692.66;7290030;19;129650;-41
2023/12/03 06:50:53;;;;;;;168.03;7.10;;;;;;;25.57;46.75;99694.97;7290623;19;130285;-39
2023/12/03 06:53:19;;;;;;;172.57;7.53;;;;;;;25.55;45.52;99694.34;7292654;19;130342;-41
2023/12/03 06:55:44;;;;;;;205.37;8.87;;;;;;;25.54;45.78;99705.81;7289970;19;130730;-37
2023/12/03 06:58:11;;;;;;;212.10;8.90;;;;;;;25.59;46.45;99706.16;7285553;19;129720;-38
2023/12/03 07:00:37;;;;;;;200.07;8.85;;;;;;;25.44;45.90;99690.19;7290964;19;129617;-39
2023/12/03 07:03:02;;;;;;;98.33;4.30;;;;;;;25.64;46.10;99720.50;7291016;19;130643;-38
2023/12/03 07:05:28;;;;;;;172.03;8.03;;;;;;;25.70;45.55;99716.41;7288067;19;132876;-38
2023/12/03 07:07:53;;;;;;;226.73;9.80;;;;;;;25.68;46.36;99727.06;7288527;19;129419;-39
2023/12/03 07:10:19;;;;;;;204.60;8.80;;;;;;;25.67;46.21;99725.44;7290304;19;129453;-39
2023/12/03 07:12:44;;;;;;;211.17;9.07;;;;;;;25.68;45.89;99734.16;7288334;19;130979;-39
2023/12/03 07:15:10;;;;;;;104.97;5.00;;;;;;;25.69;46.14;99738.44;7289558;19;129033;-38
2023/12/03 07:17:35;;;;;;;209.50;9.20;;;;;;;25.72;46.25;99738.09;7287607;19;129765;-39
2023/12/03 07:20:01;;;;;;;137.97;6.17;;;;;;;25.67;45.87;99738.59;7287613;19;129246;-37
2023/12/03 07:22:26;;;;;;;225.07;9.93;;;;;;;25.74;45.86;99746.69;7287399;19;131193;-39
2023/12/03 07:24:52;;;;;;;169.27;7.57;;;;;;;25.81;45.29;99736.31;7288154;19;131424;-39
2023/12/03 07:27:18;;;;;;;233.48;10.10;;;;;;;25.76;45.86;99736.81;7289827;19;131328;-38
2023/12/03 07:29:44;;;;;;;172.23;7.43;;;;;;;25.71;45.48;99720.66;7286781;19;131195;-39
2023/12/03 07:32:09;;;;;;;98.30;4.43;;;;;;;25.87;45.66;99741.75;7289401;19;130998;-38
2023/12/03 07:34:34;;;;;;;222.67;10.00;;;;;;;25.82;45.83;99744.03;7289729;19;132070;-36
2023/12/03 07:37:00;;;;;;;219.13;9.10;;;;;;;25.91;45.11;99756.25;7287716;19;131414;-37
2023/12/03 07:39:25;;;;;;;196.33;8.60;;;;;;;25.81;45.43;99747.69;7286474;19;130787;-39
2023/12/03 07:41:51;;;;;;;167.53;7.20;;;;;;;25.83;45.26;99756.25;7289224;19;129199;-39
2023/12/03 07:44:17;;;;;;;185.37;7.90;;;;;;;25.85;45.70;99754.25;7289673;19;131103;-40
2023/12/03 07:46:42;;;;;;;258.13;11.20;;;;;;;25.81;45.75;99752.13;7287808;19;129958;-38
2023/12/03 07:49:07;;;;;;;176.33;7.63;;;;;;;25.83;45.62;99756.25;7287120;19;132357;-39
2023/12/03 07:51:33;;;;;;;173.13;7.80;;;;;;;25.79;46.01;99739.13;7289889;19;133146;-39
2023/12/03 07:53:58;;;;;;;231.43;9.90;;;;;;;25.95;45.32;99754.91;7288282;19;129298;-37
2023/12/03 07:56:36;;;;;;;213.30;9.40;;;;;;;25.97;45.14;99765.28;7287076;19;130058;-38
2023/12/03 07:59:02;;;;;;;185.57;8.27;;;;;;;26.00;45.01;99751.81;7285695;19;129184;-39
2023/12/03 08:01:27;;;;;;;170.13;7.40;;;;;;;25.97;45.39;99758.22;7281250;19;131215;-39
2023/12/03 08:03:53;;;;;;;188.80;8.17;;;;;;;26.00;45.04;99757.09;7287524;19;132782;-37
2023/12/03 08:06:18;;;;;;;229.73;9.80;;;;;;;26.03;45.18;99752.31;7284634;19;130165;-37
2023/12/03 08:08:43;;;;;;;249.20;10.90;;;;;;;26.01;45.28;99756.94;7287234;19;129990;-39
2023/12/03 08:11:09;;;;;;;220.53;9.77;;;;;;;26.05;45.25;99754.81;7287909;19;130339;-39
2023/12/03 08:13:34;;;;;;;201.37;8.63;;;;;;;26.09;45.68;99759.59;7290791;19;130121;-38
2023/12/03 08:16:03;;;;;;;164.80;7.03;;;;;;;26.00;45.32;99763.16;7288427;19;129482;-38
2023/12/03 08:18:28;;;;;;;201.65;8.70;;;;;;;26.00;45.62;99763.16;7287101;19;131416;-37
2023/12/03 08:20:54;;;;;;;195.30;8.47;;;;;;;25.92;45.33;99760.53;7291061;19;130667;-39
2023/12/03 08:23:19;;;;;;;151.90;6.60;;;;;;;25.76;46.19;99770.22;7289862;19;130806;-39
2023/12/03 08:25:44;;;;;;;264.93;11.53;;;;;;;25.57;46.34;99768.69;7294165;19;129476;-43
2023/12/03 08:28:10;;;;;;;175.20;7.70;;;;;;;25.52;46.64;99773.63;7290910;19;130174;-36
2023/12/03 08:30:36;;;;;;;168.13;7.67;;;;;;;25.51;46.40;99771.97;7292300;19;130387;-44
2023/12/03 08:33:01;;;;;;;224.70;9.57;;;;;;;25.43;46.47;99777.22;7292659;19;129907;-40
2023/12/03 08:35:27;;;;;;;198.33;8.67;;;;;;;25.47;46.98;99787.25;7292239;19;129798;-43
2023/12/03 08:37:52;;;;;;;246.07;10.80;;;;;;;25.51;46.67;99782.50;7290353;19;130149;-43
2023/12/03 08:40:17;;;;;;;89.53;4.27;;;;;;;25.53;46.80;99780.53;7291051;19;130943;-40
2023/12/03 08:42:44;;;;;;;260.37;11.27;;;;;;;25.58;46.12;99786.16;7292174;19;129680;-42
2023/12/03 08:45:09;;;;;;;171.93;7.50;;;;;;;25.58;46.35;99783.53;7295579;19;131246;-39
2023/12/03 08:47:34;;;;;;;180.50;8.17;;;;;;;25.62;46.50;99784.84;7293420;19;130402;-40
2023/12/03 08:50:00;;;;;;;344.97;16.00;;;;;;;25.66;46.64;99788.81;7285367;19;130433;-44
2023/12/03 08:52:25;;;;;;;211.70;8.90;;;;;;;25.73;46.02;99782.72;7291657;19;129399;-43
2023/12/03 08:54:51;;;;;;;205.17;9.00;;;;;;;25.74;45.79;99786.19;7291853;19;129759;-43
2023/12/03 08:57:16;;;;;;;194.40;8.80;;;;;;;25.75;46.00;99779.13;7290504;19;131551;-42
2023/12/03 08:59:41;;;;;;;256.23;11.40;;;;;;;25.71;46.47;99789.16;7290896;19;130308;-39
2023/12/03 09:02:07;;;;;;;253.87;10.63;;;;;;;25.72;46.01;99788.16;7293087;19;130419;-40
2023/12/03 09:04:32;;;;;;;191.93;8.33;;;;;;;25.73;46.31;99787.97;7294607;19;131683;-40
2023/12/03 09:06:57;;;;;;;201.03;8.83;;;;;;;25.77;46.41;99793.75;7289129;19;129846;-41
2023/12/03 09:09:23;;;;;;;228.37;9.83;;;;;;;25.81;45.66;99800.34;7284006;19;130285;-38
2023/12/03 09:11:48;;;;;;;146.43;6.33;;;;;;;25.81;45.45;99795.09;7292596;19;130112;-37
2023/12/03 09:14:13;;;;;;;102.67;4.73;;;;;;;25.80;45.57;99803.97;7293778;19;129622;-40
2023/12/03 09:16:39;;;;;;;209.97;9.10;;;;;;;25.67;46.54;99787.81;7290373;19;129695;-44
2023/12/03 09:19:04;;;;;;;231.27;9.93;;;;;;;25.91;45.83;99802.84;7286535;19;133240;-42
2023/12/03 09:21:29;;;;;;;172.70;7.63;;;;;;;25.89;46.15;99805.63;7293142;19;130858;-41
2023/12/03 09:23:56;;;;;;;193.93;8.57;;;;;;;25.95;45.75;99801.53;7293354;19;130061;-38
2023/12/03 09:26:22;;;;;;;179.02;7.93;;;;;;;26.00;45.85;99794.78;7291262;19;130084;-43
2023/12/03 09:28:47;;;;;;;240.07;10.20;;;;;;;25.90;45.46;99801.22;7289793;19;130545;-44
2023/12/03 09:31:13;;;;;;;196.80;8.70;;;;;;;26.00;46.05;99801.88;7291461;19;130034;-38
2023/12/03 09:33:38;;;;;;;225.57;10.13;;;;;;;25.84;46.05;99802.66;7290247;19;129616;-39
2023/12/03 09:36:04;;;;;;;150.37;7.67;;;;;;;25.84;36.57;99794.75;7291447;19;130131;-38
2023/12/03 09:38:29;;;;;;;237.63;12.00;;;;;;;25.79;35.55;99799.69;7290582;19;131151;-39
2023/12/03 09:40:55;;;;;;;168.03;8.50;;;;;;;25.80;35.84;99803.97;7292557;19;129117;-41
2023/12/03 09:43:21;;;;;;;153.40;7.43;;;;;;;25.80;35.59;99793.44;7290054;19;129872;-40
2023/12/03 09:45:47;;;;;;;233.60;10.97;;;;;;;25.73;36.18;99795.09;7290926;19;130565;-45
2023/12/03 09:48:14;;;;;;;221.87;10.53;;;;;;;25.75;35.75;99798.34;7290279;19;130355;-45
2023/12/03 09:50:42;;;;;;;;;;;;;;;25.71;35.30;99794.41;7291123;19;129473;-39
2023/12/03 09:53:11;;;;;;;162.10;7.78;;;;;;;25.70;35.47;99792.78;7290021;19;129753;-41
2023/12/03 09:55:39;;;;;;;139.10;6.80;;;;;;;25.73;35.03;99792.44;7287958;19;132066;-41
2023/12/03 09:58:09;;;;;;;237.63;10.70;;;;;;;25.73;35.33;99802.16;7292856;19;132001;-41
2023/12/03 10:00:37;;;;;;;209.52;9.75;;;;;;;25.62;36.59;99785.66;7289136;19;129606;-46
2023/12/03 10:03:04;;;;;;;181.63;8.52;;;;;;;25.62;36.58;99798.81;7289520;19;129617;-43
2023/12/03 10:05:30;;;;;;;218.32;10.27;;;;;;;25.69;34.99;99796.38;7289039;19;130789;-40
2023/12/03 10:07:55;;;;;;;202.00;9.23;;;;;;;25.70;35.10;99798.84;7289086;19;130757;-43
2023/12/03 10:10:23;;;;;;;165.37;7.87;;;;;;;25.47;35.72;99776.72;7292321;19;131237;-41
2023/12/03 10:12:50;;;;;;;202.75;9.70;;;;;;;25.56;36.11;99798.66;7291568;19;133245;-41
2023/12/03 10:15:16;;;;;;;187.32;9.32;;;;;;;25.56;35.83;99799.47;7286043;19;130177;-38
2023/12/03 10:17:43;;;;;;;301.00;13.93;;;;;;;25.53;35.92;99802.44;7286860;19;130301;-39
2023/12/03 10:20:20;;;;;;;257.80;12.60;;;;;;;25.36;36.22;99802.53;7282149;19;130379;-35
2023/12/03 10:22:46;;;;;;;224.47;11.13;;;;;;;25.25;36.17;99808.06;7289491;19;129642;-39
2023/12/03 10:25:11;;;;;;;216.70;10.57;;;;;;;25.12;37.28;99807.66;7288306;19;131685;-37
2023/12/03 10:27:37;;;;;;;226.07;10.30;;;;;;;25.03;37.78;99813.84;7285148;19;130316;-38
2023/12/03 10:30:02;;;;;;;340.03;16.03;;;;;;;25.01;38.69;99813.19;7281717;19;131322;-37
2023/12/03 10:32:28;;;;;;;201.13;9.70;;;;;;;25.16;39.25;99814.25;7288040;19;130175;-37
2023/12/03 10:34:54;;;;;;;169.95;8.48;;;;;;;25.16;39.58;99814.25;7287315;19;130438;-36
2023/12/03 10:37:19;;;;;;;186.80;9.30;;;;;;;25.05;39.53;99806.63;7284307;19;130881;-37
2023/12/03 10:39:48;;;;;;;231.15;11.57;;;;;;;25.14;40.07;99816.22;7286208;19;129924;-40
2023/12/03 10:42:13;;;;;;;124.50;6.30;;;;;;;25.08;40.40;99790.53;7290181;19;130042;-41
2023/12/03 10:44:38;;;;;;;202.83;9.90;;;;;;;25.27;40.02;99814.78;7287771;19;130125;-38
2023/12/03 10:47:04;;;;;;;195.87;9.10;;;;;;;25.28;40.05;99813.00;7286009;19;131120;-39
2023/12/03 10:49:31;;;;;;;194.40;9.33;;;;;;;25.33;40.25;99806.28;7282964;19;130976;-40
2023/12/03 10:51:57;;;;;;;96.38;5.03;;;;;;;25.33;39.84;99810.72;7287949;19;132334;-40
2023/12/03 10:54:23;;;;;;;202.32;9.93;;;;;;;25.41;39.78;99811.59;7287797;19;131156;-40
2023/12/03 10:56:54;;;;;;;284.45;12.95;;;;;;;25.46;40.88;99814.59;7287742;19;134652;-39
2023/12/03 10:59:22;;;;;;;228.60;10.55;;;;;;;25.53;40.27;99817.41;7285820;19;130086;-41
2023/12/03 11:01:53;;;;;;;211.82;9.57;;;;;;;25.53;40.75;99827.94;7290151;19;132486;-40